Terminal Aerodrome Forecast
Issued by NWS

Home | Current Version | Previous Version | Graphics & Text | Print | Product List | Glossary On
Versions: 1 2 3 4 5 6 7 8 9 10 11 12 13 14 15 16 17
000
FTUS43 KMPX 271700
TAFRNH
TAF
KRNH 271720Z 2718/2818 11003KT P6SM FEW035 SCT120 SCT250
     FM281000 12004KT 4SM BR BKN100
     FM281500 14005KT P6SM OVC050=

USA.gov is the U.S. government's official web portal to all federal, state and local government web resources and services.